Wendel, California
Current Conditions -  °F | °C
As of 1:15 PM on Saturday 20 Dec 2014 (Local Time) from KRTS Reporting Station
Overcast Overcast  
Wind Chill: 39°   Ceiling: 4300
Heat Index: 46°   Visibility: 10mi
Dew Point: 32°   Wind: 17mph
Humidity: 57%   Direction: 250°WSW
Pressure: 30.09"   Gusts: 23mph
Location:  40.35°N, 120.24°W
Report Text: KRTS 202115Z AUTO 25015G20KT 10SM OVC043 08/00 A3009 RMK AO2
Loading
Personal Weather Stations






























Interactive Weather Map New forecast layout! Learn more

10-Day Weather Forecast

Advertisements
Track Severe Weather on mobile